createdAt,value
2023-01-25T00:01:14.353Z,2.60
2023-01-25T00:03:41.122Z,2.60
2023-01-25T00:06:11.053Z,2.50
2023-01-25T00:08:41.010Z,2.60
2023-01-25T00:11:07.808Z,2.60
2023-01-25T00:13:34.567Z,2.60
2023-01-25T00:16:03.751Z,2.60
2023-01-25T00:18:42.344Z,2.60
2023-01-25T00:21:21.628Z,2.70
2023-01-25T00:23:49.408Z,2.70
2023-01-25T00:26:16.908Z,2.70
2023-01-25T00:28:43.872Z,2.70
2023-01-25T00:31:25.846Z,2.60
2023-01-25T00:34:10.745Z,2.60
2023-01-25T00:36:37.483Z,2.40
2023-01-25T00:39:12.572Z,2.30
2023-01-25T00:41:40.531Z,2.20
2023-01-25T00:44:07.913Z,2.10
2023-01-25T00:46:34.645Z,2.10
2023-01-25T00:49:01.420Z,2.20
2023-01-25T00:51:28.308Z,2.20
2023-01-25T00:53:57.783Z,2.20
2023-01-25T00:56:24.657Z,2.10
2023-01-25T00:58:51.448Z,2.10
2023-01-25T01:01:18.433Z,2.20
2023-01-25T01:03:45.319Z,2.20
2023-01-25T01:06:13.034Z,2.30
2023-01-25T01:08:42.253Z,2.40
2023-01-25T01:11:12.455Z,2.30
2023-01-25T01:13:40.208Z,2.30
2023-01-25T01:16:14.189Z,2.30
2023-01-25T01:18:46.409Z,2.20
2023-01-25T01:21:13.898Z,2.10
2023-01-25T01:23:41.431Z,2.20
2023-01-25T01:26:12.127Z,2.30
2023-01-25T01:28:39.604Z,2.30
2023-01-25T01:31:14.628Z,2.30
2023-01-25T01:33:41.642Z,2.30
2023-01-25T01:36:23.285Z,2.30
2023-01-25T01:38:50.307Z,2.30
2023-01-25T01:41:20.973Z,2.40
2023-01-25T01:43:48.313Z,2.40
2023-01-25T01:46:35.854Z,2.40
2023-01-25T01:49:25.026Z,2.40
2023-01-25T01:51:58.723Z,2.40
2023-01-25T01:55:00.256Z,2.40
2023-01-25T01:57:35.516Z,2.40
2023-01-25T02:00:17.325Z,2.30
2023-01-25T02:02:46.225Z,2.30
2023-01-25T02:05:28.562Z,2.30
2023-01-25T02:07:59.921Z,2.30
2023-01-25T02:10:28.499Z,2.30
2023-01-25T02:13:00.981Z,2.30
2023-01-25T02:15:41.680Z,2.30
2023-01-25T02:18:11.032Z,2.20
2023-01-25T02:20:51.498Z,2.30
2023-01-25T02:24:04.743Z,2.40
2023-01-25T02:26:32.058Z,2.30
2023-01-25T02:29:08.416Z,2.40
2023-01-25T02:31:35.326Z,2.40
2023-01-25T02:34:05.337Z,2.30
2023-01-25T02:36:39.530Z,2.20
2023-01-25T02:39:20.008Z,2.00
2023-01-25T02:41:48.090Z,1.90
2023-01-25T02:44:25.427Z,2.00
2023-01-25T02:46:52.346Z,2.10
2023-01-25T02:49:20.219Z,2.20
2023-01-25T02:51:51.842Z,2.20
2023-01-25T02:54:20.810Z,2.30
2023-01-25T02:56:50.759Z,2.30
2023-01-25T02:59:19.017Z,2.40
2023-01-25T03:01:46.151Z,2.40
2023-01-25T03:04:13.496Z,2.40
2023-01-25T03:06:41.186Z,2.30
2023-01-25T03:09:11.173Z,2.20
2023-01-25T03:11:38.049Z,2.00
2023-01-25T03:14:05.354Z,2.00
2023-01-25T03:16:32.598Z,2.00
2023-01-25T03:18:59.623Z,2.00
2023-01-25T03:21:26.866Z,2.00
2023-01-25T03:24:06.239Z,2.00
2023-01-25T03:26:53.027Z,2.10
2023-01-25T03:29:19.764Z,2.20
2023-01-25T03:31:46.548Z,2.10
2023-01-25T03:34:13.326Z,2.10
2023-01-25T03:36:40.117Z,2.10
2023-01-25T03:39:06.846Z,2.20
2023-01-25T03:41:33.533Z,2.20
2023-01-25T03:44:00.248Z,2.20
2023-01-25T03:46:29.681Z,2.20
2023-01-25T03:48:56.428Z,2.30
2023-01-25T03:51:23.129Z,2.20
2023-01-25T03:53:49.937Z,2.20
2023-01-25T03:56:20.153Z,2.20
2023-01-25T03:58:47.354Z,2.20
2023-01-25T04:01:16.885Z,2.30
2023-01-25T04:03:43.827Z,2.30
2023-01-25T04:06:10.630Z,2.30
2023-01-25T04:08:37.618Z,2.30
2023-01-25T04:11:12.324Z,2.30
2023-01-25T04:13:39.799Z,2.30
2023-01-25T04:16:13.580Z,2.30
2023-01-25T04:18:40.752Z,2.20
2023-01-25T04:21:07.604Z,2.00
2023-01-25T04:23:34.442Z,2.00
2023-01-25T04:26:19.441Z,2.00
2023-01-25T04:28:46.267Z,2.10
2023-01-25T04:31:13.135Z,2.10
2023-01-25T04:33:39.890Z,2.10
2023-01-25T04:36:07.301Z,2.20
2023-01-25T04:38:36.643Z,2.20
2023-01-25T04:41:05.235Z,2.20
2023-01-25T04:43:32.034Z,2.20
2023-01-25T04:46:02.715Z,2.20
2023-01-25T04:48:35.232Z,2.10
2023-01-25T04:51:02.024Z,2.10
2023-01-25T04:53:28.736Z,2.00
2023-01-25T04:55:55.475Z,2.00
2023-01-25T04:58:22.300Z,2.00
2023-01-25T05:00:49.254Z,2.00
2023-01-25T05:03:18.196Z,2.00
2023-01-25T05:05:48.298Z,2.00
2023-01-25T05:08:15.196Z,2.00
2023-01-25T05:10:41.918Z,2.00
2023-01-25T05:13:08.761Z,2.10
2023-01-25T05:15:35.501Z,2.10
2023-01-25T05:18:03.480Z,2.00
2023-01-25T05:20:30.390Z,2.10
2023-01-25T05:22:57.151Z,2.10
2023-01-25T05:25:42.649Z,2.10
2023-01-25T05:28:11.583Z,2.10
2023-01-25T05:30:38.377Z,2.10
2023-01-25T05:33:05.259Z,2.10
2023-01-25T05:35:32.521Z,2.00
2023-01-25T05:37:59.921Z,2.10
2023-01-25T05:40:29.281Z,2.10
2023-01-25T05:42:58.338Z,2.10
2023-01-25T05:45:26.181Z,2.10
2023-01-25T05:47:54.810Z,1.90
2023-01-25T05:50:23.422Z,1.90
2023-01-25T05:52:50.625Z,1.80
2023-01-25T05:55:17.787Z,1.70
2023-01-25T05:57:44.520Z,1.80
2023-01-25T06:00:13.434Z,1.90
2023-01-25T06:02:40.534Z,1.90
2023-01-25T06:05:08.631Z,1.90
2023-01-25T06:07:36.757Z,1.80
2023-01-25T06:10:05.652Z,1.90
2023-01-25T06:12:33.073Z,1.90
2023-01-25T06:14:59.877Z,1.80
2023-01-25T06:17:26.724Z,1.50
2023-01-25T06:19:53.507Z,1.30
2023-01-25T06:22:23.286Z,1.30
2023-01-25T06:24:52.336Z,1.20
2023-01-25T06:27:24.658Z,1.10
2023-01-25T06:29:51.394Z,1.10
2023-01-25T06:32:18.269Z,1.10
2023-01-25T06:34:46.243Z,1.20
2023-01-25T06:37:12.945Z,1.40
2023-01-25T06:39:39.656Z,1.50
2023-01-25T06:42:06.346Z,1.40
2023-01-25T06:44:33.166Z,1.60
2023-01-25T06:46:59.972Z,1.70
2023-01-25T06:49:26.783Z,1.70
2023-01-25T06:51:53.662Z,1.70
2023-01-25T06:54:20.527Z,1.70
2023-01-25T06:56:47.310Z,1.90
2023-01-25T06:59:18.325Z,1.80
2023-01-25T07:01:48.304Z,1.80
2023-01-25T07:04:15.141Z,1.70
2023-01-25T07:06:41.955Z,1.80
2023-01-25T07:09:13.868Z,1.90
2023-01-25T07:11:42.698Z,1.90
2023-01-25T07:14:09.477Z,1.80
2023-01-25T07:16:39.378Z,1.70
2023-01-25T07:19:13.267Z,1.70
2023-01-25T07:21:43.405Z,1.70
2023-01-25T07:24:18.790Z,1.70
2023-01-25T07:26:47.551Z,1.70
2023-01-25T07:29:17.082Z,1.70
2023-01-25T07:31:43.881Z,1.60
2023-01-25T07:34:13.192Z,1.60
2023-01-25T07:36:41.417Z,1.60
2023-01-25T07:39:10.474Z,1.60
2023-01-25T07:41:37.809Z,1.40
2023-01-25T07:44:04.706Z,1.30
2023-01-25T07:46:31.556Z,1.40
2023-01-25T07:49:01.455Z,1.60
2023-01-25T07:51:32.389Z,1.60
2023-01-25T07:54:03.712Z,1.60
2023-01-25T07:56:34.679Z,1.50
2023-01-25T07:59:02.798Z,1.40
2023-01-25T08:01:34.680Z,1.30
2023-01-25T08:04:03.156Z,1.40
2023-01-25T08:06:36.246Z,1.30
2023-01-25T08:09:15.897Z,1.10
2023-01-25T08:11:43.311Z,1.00
2023-01-25T08:14:11.370Z,1.00
2023-01-25T08:16:38.229Z,1.00
2023-01-25T08:19:05.103Z,1.00
2023-01-25T08:21:34.884Z,1.00
2023-01-25T08:24:05.712Z,1.10
2023-01-25T08:26:34.576Z,1.00
2023-01-25T08:29:01.389Z,1.10
2023-01-25T08:31:32.822Z,1.00
2023-01-25T08:34:04.170Z,1.00
2023-01-25T08:36:31.397Z,1.00
2023-01-25T08:39:05.894Z,1.10
2023-01-25T08:41:34.741Z,1.00
2023-01-25T08:44:01.852Z,0.90
2023-01-25T08:46:33.002Z,0.90
2023-01-25T08:49:01.921Z,0.70
2023-01-25T08:51:29.573Z,0.80
2023-01-25T08:53:56.287Z,1.00
2023-01-25T08:56:23.318Z,1.10
2023-01-25T08:58:50.895Z,1.10
2023-01-25T09:01:19.289Z,1.20
2023-01-25T09:03:49.280Z,1.10
2023-01-25T09:06:17.602Z,1.10
2023-01-25T09:08:44.518Z,1.00
2023-01-25T09:11:15.776Z,0.90
2023-01-25T09:13:43.699Z,0.70
2023-01-25T09:16:14.572Z,0.80
2023-01-25T09:18:44.306Z,0.80
2023-01-25T09:21:15.476Z,1.10
2023-01-25T09:24:05.568Z,1.20
2023-01-25T09:26:36.403Z,1.00
2023-01-25T09:29:04.183Z,0.90
2023-01-25T09:31:31.108Z,1.00
2023-01-25T09:33:58.476Z,1.00
2023-01-25T09:36:25.670Z,1.10
2023-01-25T09:38:55.054Z,1.00
2023-01-25T09:41:58.161Z,0.90
2023-01-25T09:44:53.223Z,0.90
2023-01-25T09:47:40.198Z,0.90
2023-01-25T09:50:35.568Z,0.80
2023-01-25T09:53:29.084Z,0.90
2023-01-25T09:56:22.390Z,0.90
2023-01-25T09:58:55.810Z,0.90
2023-01-25T10:01:41.785Z,0.90
2023-01-25T10:04:42.344Z,0.90
2023-01-25T10:07:55.780Z,1.00
2023-01-25T10:10:35.540Z,0.90
2023-01-25T10:13:07.654Z,0.90
2023-01-25T10:15:51.227Z,0.70
2023-01-25T10:18:59.555Z,0.80
2023-01-25T10:22:04.308Z,0.80
2023-01-25T10:24:51.217Z,0.80
2023-01-25T10:28:14.367Z,0.80
2023-01-25T10:30:56.684Z,0.80
2023-01-25T10:33:24.061Z,0.80
2023-01-25T10:35:51.195Z,0.80
2023-01-25T10:38:30.129Z,0.90
2023-01-25T10:41:24.088Z,0.90
2023-01-25T10:44:10.907Z,0.90
2023-01-25T10:46:41.315Z,1.00
2023-01-25T10:49:29.999Z,1.00
2023-01-25T10:51:57.351Z,1.00
2023-01-25T10:54:24.538Z,1.00
2023-01-25T10:56:52.745Z,1.20
2023-01-25T10:59:25.642Z,1.30
2023-01-25T11:01:52.930Z,1.30
2023-01-25T11:04:30.408Z,1.20
2023-01-25T11:06:58.571Z,1.30
2023-01-25T11:09:35.602Z,1.00
2023-01-25T11:12:15.334Z,0.90
2023-01-25T11:14:42.255Z,0.80
2023-01-25T11:17:31.410Z,0.80
2023-01-25T11:20:20.831Z,0.70
2023-01-25T11:22:54.524Z,0.70
2023-01-25T11:25:33.600Z,0.60
2023-01-25T11:28:28.990Z,0.60
2023-01-25T11:30:55.943Z,0.70
2023-01-25T11:33:22.955Z,0.60
2023-01-25T11:36:22.698Z,0.50
2023-01-25T11:39:01.847Z,0.50
2023-01-25T11:41:59.320Z,0.60
2023-01-25T11:45:02.843Z,0.60
2023-01-25T11:48:27.975Z,0.70
2023-01-25T11:51:29.109Z,0.70
2023-01-25T11:54:28.549Z,0.60
2023-01-25T11:57:10.005Z,0.70
2023-01-25T12:00:03.619Z,0.70
2023-01-25T12:03:19.543Z,0.70
2023-01-25T12:06:13.581Z,0.80
2023-01-25T12:08:58.173Z,0.90
2023-01-25T12:11:52.596Z,0.90
2023-01-25T12:14:41.245Z,0.70
2023-01-25T12:17:38.132Z,0.80
2023-01-25T12:20:59.755Z,0.80
2023-01-25T12:24:07.297Z,0.90
2023-01-25T12:27:26.042Z,0.90
2023-01-25T12:30:27.153Z,0.90
2023-01-25T12:33:13.929Z,0.90
2023-01-25T12:36:06.385Z,0.80
2023-01-25T12:39:10.599Z,0.90
2023-01-25T12:41:52.020Z,0.80
2023-01-25T12:44:38.984Z,0.60
2023-01-25T12:47:28.287Z,0.70
2023-01-25T12:50:25.346Z,0.70
2023-01-25T12:52:59.520Z,0.80
2023-01-25T12:55:27.733Z,0.70
2023-01-25T12:58:37.510Z,0.80
2023-01-25T13:01:35.688Z,0.70
2023-01-25T13:04:34.530Z,0.70
2023-01-25T13:07:17.374Z,0.50
2023-01-25T13:10:12.955Z,0.60
2023-01-25T13:12:55.072Z,0.70
2023-01-25T13:15:44.376Z,0.70
2023-01-25T13:18:39.331Z,0.60
2023-01-25T13:21:31.369Z,0.80
2023-01-25T13:24:30.167Z,0.70
2023-01-25T13:27:23.714Z,0.60
2023-01-25T13:30:27.791Z,0.50
2023-01-25T13:33:03.574Z,0.70
2023-01-25T13:35:37.318Z,0.80
2023-01-25T13:38:26.321Z,1.00
2023-01-25T13:41:12.040Z,1.00
2023-01-25T13:43:42.258Z,1.00
2023-01-25T13:46:14.605Z,1.00
2023-01-25T13:48:58.942Z,1.00
2023-01-25T13:51:31.730Z,1.00
2023-01-25T13:54:02.886Z,0.80
2023-01-25T13:56:34.624Z,0.80
2023-01-25T13:59:02.035Z,0.90
2023-01-25T14:01:36.880Z,1.00
2023-01-25T14:04:05.241Z,1.00
2023-01-25T14:06:39.463Z,1.00
2023-01-25T14:09:17.313Z,1.00
2023-01-25T14:11:57.620Z,0.80
2023-01-25T14:14:35.182Z,0.70
2023-01-25T14:17:23.531Z,0.70
2023-01-25T14:19:59.597Z,0.50
2023-01-25T14:22:29.789Z,0.40
2023-01-25T14:25:17.325Z,0.40
2023-01-25T14:27:48.942Z,0.40
2023-01-25T14:30:27.189Z,0.40
2023-01-25T14:32:58.910Z,0.40
2023-01-25T14:35:42.976Z,0.40
2023-01-25T14:38:31.873Z,0.40
2023-01-25T14:41:14.631Z,0.40
2023-01-25T14:43:45.533Z,0.50
2023-01-25T14:46:34.674Z,0.50
2023-01-25T14:49:26.201Z,0.70
2023-01-25T14:52:14.523Z,0.70
2023-01-25T14:54:58.098Z,0.80
2023-01-25T14:57:35.277Z,0.70
2023-01-25T15:00:07.238Z,0.50
2023-01-25T15:02:58.813Z,0.50
2023-01-25T15:05:33.258Z,0.40
2023-01-25T15:08:09.123Z,0.50
2023-01-25T15:10:50.653Z,0.60
2023-01-25T15:13:19.904Z,0.70
2023-01-25T15:16:01.218Z,0.60
2023-01-25T15:18:57.476Z,0.80
2023-01-25T15:21:33.018Z,0.70
2023-01-25T15:24:06.736Z,0.50
2023-01-25T15:26:36.097Z,0.40
2023-01-25T15:29:14.495Z,0.40
2023-01-25T15:31:42.505Z,0.40
2023-01-25T15:34:30.230Z,0.30
2023-01-25T15:36:59.385Z,0.40
2023-01-25T15:39:27.376Z,0.40
2023-01-25T15:41:54.115Z,0.40
2023-01-25T15:44:26.439Z,0.60
2023-01-25T15:46:53.646Z,0.60
2023-01-25T15:49:27.845Z,0.50
2023-01-25T15:51:56.302Z,0.60
2023-01-25T15:54:26.536Z,0.40
2023-01-25T15:56:58.788Z,0.40
2023-01-25T15:59:27.042Z,0.30
2023-01-25T16:02:00.018Z,0.40
2023-01-25T16:04:26.802Z,0.40
2023-01-25T16:06:55.276Z,0.30
2023-01-25T16:09:26.867Z,0.30
2023-01-25T16:11:58.848Z,0.40
2023-01-25T16:14:29.937Z,0.40
2023-01-25T16:17:05.298Z,0.20
2023-01-25T16:19:33.575Z,0.20
2023-01-25T16:22:00.634Z,0.20
2023-01-25T16:24:27.704Z,0.20
2023-01-25T16:26:58.220Z,0.20
2023-01-25T16:29:25.673Z,0.30
2023-01-25T16:31:53.858Z,0.40
2023-01-25T16:34:21.852Z,0.50
2023-01-25T16:36:57.509Z,0.60
2023-01-25T16:39:28.131Z,0.80
2023-01-25T16:41:57.447Z,0.80
2023-01-25T16:44:25.541Z,0.90
2023-01-25T16:46:56.344Z,0.90
2023-01-25T16:49:30.356Z,1.00
2023-01-25T16:51:58.454Z,1.00
2023-01-25T16:54:26.684Z,1.00
2023-01-25T16:56:55.034Z,1.10
2023-01-25T16:59:23.980Z,1.10
2023-01-25T17:01:50.917Z,1.10
2023-01-25T17:04:18.786Z,1.10
2023-01-25T17:06:49.985Z,1.20
2023-01-25T17:09:24.120Z,1.10
2023-01-25T17:11:55.975Z,1.10
2023-01-25T17:14:23.872Z,1.10
2023-01-25T17:16:54.403Z,1.00
2023-01-25T17:19:21.357Z,1.00
2023-01-25T17:21:51.476Z,1.00
2023-01-25T17:24:21.587Z,1.00
2023-01-25T17:26:49.147Z,1.00
2023-01-25T17:29:18.777Z,1.00
2023-01-25T17:31:48.580Z,1.00
2023-01-25T17:34:21.896Z,1.00
2023-01-25T17:36:51.708Z,1.00
2023-01-25T17:39:22.574Z,1.00
2023-01-25T17:41:51.783Z,1.00
2023-01-25T17:44:22.542Z,1.00
2023-01-25T17:46:52.621Z,0.90
2023-01-25T17:49:22.633Z,0.90
2023-01-25T17:51:49.473Z,1.00
2023-01-25T17:54:16.422Z,0.90
2023-01-25T17:56:44.956Z,0.90
2023-01-25T17:59:11.928Z,0.90
2023-01-25T18:01:42.381Z,0.90
2023-01-25T18:04:09.892Z,0.90
2023-01-25T18:06:37.252Z,0.90
2023-01-25T18:09:06.497Z,0.90
2023-01-25T18:11:35.477Z,0.90
2023-01-25T18:14:10.667Z,0.90
2023-01-25T18:16:40.592Z,0.80
2023-01-25T18:19:08.157Z,0.80
2023-01-25T18:21:36.497Z,0.70
2023-01-25T18:24:22.160Z,0.80
2023-01-25T18:26:50.815Z,0.70
2023-01-25T18:29:17.600Z,0.70
2023-01-25T18:31:45.026Z,0.80
2023-01-25T18:34:11.922Z,0.90
2023-01-25T18:36:41.159Z,0.80
2023-01-25T18:39:08.943Z,0.70
2023-01-25T18:41:35.721Z,0.80
2023-01-25T18:44:02.480Z,0.70
2023-01-25T18:46:29.308Z,0.80
2023-01-25T18:48:56.386Z,0.80
2023-01-25T18:51:26.672Z,0.80
2023-01-25T18:53:54.438Z,0.80
2023-01-25T18:56:21.965Z,0.80
2023-01-25T18:58:50.981Z,0.80
2023-01-25T19:01:21.171Z,0.90
2023-01-25T19:03:50.167Z,0.90
2023-01-25T19:06:20.295Z,0.90
2023-01-25T19:08:49.693Z,0.90
2023-01-25T19:11:20.200Z,0.80
2023-01-25T19:13:47.449Z,0.80
2023-01-25T19:16:21.089Z,0.90
2023-01-25T19:18:52.010Z,0.90
2023-01-25T19:21:25.857Z,0.90
2023-01-25T19:23:54.367Z,1.00
2023-01-25T19:26:24.436Z,1.00
2023-01-25T19:28:52.862Z,1.00
2023-01-25T19:31:23.514Z,1.00
2023-01-25T19:33:57.255Z,1.00
2023-01-25T19:36:29.597Z,1.00
2023-01-25T19:39:01.954Z,1.10
2023-01-25T19:41:31.328Z,1.00
2023-01-25T19:44:01.150Z,1.10
2023-01-25T19:46:33.160Z,1.00
2023-01-25T19:49:02.038Z,1.00
2023-01-25T19:51:32.542Z,1.00
2023-01-25T19:54:05.803Z,1.00
2023-01-25T19:56:36.626Z,0.90
2023-01-25T19:59:06.394Z,0.90
2023-01-25T20:01:36.480Z,1.00
2023-01-25T20:04:05.941Z,1.10
2023-01-25T20:06:33.223Z,1.00
2023-01-25T20:09:00.030Z,1.10
2023-01-25T20:11:39.618Z,1.10
2023-01-25T20:14:07.389Z,1.10
2023-01-25T20:16:37.305Z,1.00
2023-01-25T20:19:04.403Z,1.00
2023-01-25T20:21:33.478Z,1.00
2023-01-25T20:24:04.910Z,1.00
2023-01-25T20:26:42.530Z,1.00
2023-01-25T20:29:11.550Z,1.00
2023-01-25T20:31:45.279Z,1.00
2023-01-25T20:34:18.838Z,1.00
2023-01-25T20:36:46.798Z,1.00
2023-01-25T20:39:18.074Z,0.90
2023-01-25T20:41:47.297Z,0.90
2023-01-25T20:44:17.804Z,0.90
2023-01-25T20:46:47.986Z,0.90
2023-01-25T20:49:18.926Z,0.80
2023-01-25T20:51:47.015Z,0.80
2023-01-25T20:54:15.676Z,0.80
2023-01-25T20:56:43.058Z,0.80
2023-01-25T20:59:10.324Z,0.90
2023-01-25T21:01:37.589Z,0.90
2023-01-25T21:04:07.709Z,0.80
2023-01-25T21:06:35.235Z,0.90
2023-01-25T21:09:02.888Z,0.90
2023-01-25T21:11:29.794Z,0.90
2023-01-25T21:13:57.054Z,0.90
2023-01-25T21:16:24.383Z,0.90
2023-01-25T21:19:00.175Z,0.90
2023-01-25T21:21:32.531Z,0.90
2023-01-25T21:24:02.387Z,0.80
2023-01-25T21:26:33.120Z,0.80
2023-01-25T21:29:04.406Z,0.90
2023-01-25T21:31:38.025Z,0.90
2023-01-25T21:34:10.537Z,0.90
2023-01-25T21:36:39.808Z,0.90
2023-01-25T21:39:06.644Z,0.90
2023-01-25T21:41:34.136Z,0.90
2023-01-25T21:44:23.009Z,1.00
2023-01-25T21:47:16.224Z,0.90
2023-01-25T21:49:55.792Z,1.00
2023-01-25T21:52:22.534Z,1.00
2023-01-25T21:54:49.276Z,1.00
2023-01-25T21:57:16.180Z,1.10
2023-01-25T21:59:43.001Z,1.00
2023-01-25T22:02:14.752Z,1.10
2023-01-25T22:04:44.067Z,1.00
2023-01-25T22:07:11.699Z,0.90
2023-01-25T22:09:38.679Z,0.90
2023-01-25T22:12:05.626Z,0.90
2023-01-25T22:14:35.080Z,0.90
2023-01-25T22:17:05.422Z,1.00
2023-01-25T22:19:33.271Z,1.00
2023-01-25T22:22:00.185Z,1.00
2023-01-25T22:24:27.003Z,1.00
2023-01-25T22:27:16.957Z,1.00
2023-01-25T22:29:43.682Z,1.00
2023-01-25T22:32:13.539Z,1.10
2023-01-25T22:34:40.297Z,1.00
2023-01-25T22:37:07.098Z,1.00
2023-01-25T22:39:33.833Z,1.00
2023-01-25T22:42:00.530Z,1.10
2023-01-25T22:44:27.292Z,1.00
2023-01-25T22:46:54.077Z,1.00
2023-01-25T22:49:23.370Z,1.00
2023-01-25T22:51:50.151Z,1.00
2023-01-25T22:54:17.080Z,0.90
2023-01-25T22:56:43.870Z,1.00
2023-01-25T22:59:14.744Z,1.00
2023-01-25T23:01:44.731Z,1.00
2023-01-25T23:04:11.585Z,1.10
2023-01-25T23:06:38.720Z,1.00
2023-01-25T23:09:06.951Z,1.00
2023-01-25T23:11:38.277Z,1.00
2023-01-25T23:14:33.160Z,1.00
2023-01-25T23:17:18.385Z,0.90
2023-01-25T23:19:45.268Z,0.90
2023-01-25T23:22:15.124Z,0.90
2023-01-25T23:24:43.218Z,0.90
2023-01-25T23:27:10.046Z,0.90
2023-01-25T23:29:37.245Z,1.00
2023-01-25T23:32:04.146Z,0.90
2023-01-25T23:34:34.717Z,1.00
2023-01-25T23:37:01.529Z,1.10
2023-01-25T23:39:28.321Z,1.10
2023-01-25T23:41:57.614Z,1.10
2023-01-25T23:44:27.444Z,1.10
2023-01-25T23:46:54.238Z,1.00
2023-01-25T23:49:21.058Z,1.10
2023-01-25T23:51:47.915Z,1.10
2023-01-25T23:54:23.177Z,1.00
2023-01-25T23:56:49.917Z,1.10
2023-01-25T23:59:16.695Z,1.10
